createdAt,value
2022-07-27T00:01:34.368Z,3.25
2022-07-27T00:05:39.756Z,5.65
2022-07-27T00:09:42.799Z,2.35
2022-07-27T00:13:46.230Z,3.60
2022-07-27T00:17:51.167Z,1.27
2022-07-27T00:21:54.621Z,1.45
2022-07-27T00:25:57.864Z,1.00
2022-07-27T00:30:00.961Z,2.88
2022-07-27T00:34:05.387Z,5.10
2022-07-27T00:38:08.578Z,2.88
2022-07-27T00:42:11.773Z,3.10
2022-07-27T00:46:15.700Z,3.47
2022-07-27T00:50:20.164Z,1.38
2022-07-27T00:54:24.181Z,2.38
2022-07-27T00:58:28.207Z,2.55
2022-07-27T01:02:32.164Z,2.13
2022-07-27T01:06:38.143Z,1.25
2022-07-27T01:10:41.912Z,1.92
2022-07-27T01:14:45.149Z,2.80
2022-07-27T01:18:48.250Z,4.13
2022-07-27T01:22:52.770Z,6.20
2022-07-27T01:26:56.222Z,5.18
2022-07-27T01:30:59.375Z,3.10
2022-07-27T01:35:02.550Z,2.72
2022-07-27T01:39:06.991Z,2.38
2022-07-27T01:43:10.060Z,3.90
2022-07-27T01:47:14.075Z,3.45
2022-07-27T01:51:17.989Z,2.17
2022-07-27T01:55:22.465Z,2.22
2022-07-27T01:59:25.571Z,1.27
2022-07-27T02:03:28.591Z,3.00
2022-07-27T02:07:31.755Z,3.35
2022-07-27T02:11:53.859Z,2.85
2022-07-27T02:15:57.341Z,3.35
2022-07-27T02:20:00.466Z,3.33
2022-07-27T02:24:03.596Z,7.05
2022-07-27T02:28:09.111Z,3.83
2022-07-27T02:32:12.780Z,1.85
2022-07-27T02:36:16.554Z,3.60
2022-07-27T02:40:20.391Z,3.83
2022-07-27T02:44:24.913Z,4.15
2022-07-27T02:48:28.037Z,6.38
2022-07-27T02:52:31.070Z,2.40
2022-07-27T02:56:34.244Z,3.92
2022-07-27T03:00:38.792Z,2.35
2022-07-27T03:04:41.989Z,2.17
2022-07-27T03:08:45.044Z,2.83
2022-07-27T03:12:48.134Z,5.43
2022-07-27T03:16:52.511Z,4.93
2022-07-27T03:20:55.692Z,6.22
2022-07-27T03:24:58.817Z,3.55
2022-07-27T03:29:01.911Z,4.30
2022-07-27T03:33:06.375Z,2.67
2022-07-27T03:37:09.711Z,6.63
2022-07-27T03:41:12.729Z,7.05
2022-07-27T03:45:15.956Z,4.43
2022-07-27T03:49:20.626Z,8.50
2022-07-27T03:53:23.849Z,5.32
2022-07-27T03:57:26.907Z,5.32
2022-07-27T04:01:30.287Z,3.70
2022-07-27T04:05:34.848Z,12.45
2022-07-27T04:09:39.520Z,3.58
2022-07-27T04:13:46.719Z,8.20
2022-07-27T04:17:56.265Z,7.72
2022-07-27T04:22:01.663Z,42.25
2022-07-27T04:26:05.038Z,9.18
2022-07-27T04:30:09.974Z,9.35
2022-07-27T04:34:13.025Z,13.70
2022-07-27T04:38:17.394Z,11.43
2022-07-27T04:42:20.490Z,11.20
2022-07-27T04:46:23.756Z,17.80
2022-07-27T04:50:27.157Z,17.15
2022-07-27T04:54:35.867Z,18.80
2022-07-27T04:58:39.096Z,15.63
2022-07-27T05:02:43.636Z,22.25
2022-07-27T05:06:47.148Z,25.08
2022-07-27T05:10:51.561Z,25.90
2022-07-27T05:14:54.777Z,20.95
2022-07-27T05:18:58.159Z,18.73
2022-07-27T05:23:01.401Z,19.05
2022-07-27T05:27:06.742Z,17.65
2022-07-27T05:31:10.180Z,13.32
2022-07-27T05:35:13.635Z,4.88
2022-07-27T05:39:17.063Z,9.32
2022-07-27T05:43:21.749Z,3.30
2022-07-27T05:47:25.047Z,3.20
2022-07-27T05:51:28.073Z,3.95
2022-07-27T05:55:31.217Z,7.15
2022-07-27T05:59:36.653Z,3.33
2022-07-27T06:03:39.744Z,4.35
2022-07-27T06:08:03.346Z,8.40
2022-07-27T06:12:07.345Z,5.35
2022-07-27T06:16:12.042Z,10.48
2022-07-27T06:20:15.199Z,6.18
2022-07-27T06:24:18.616Z,6.70
2022-07-27T06:28:21.732Z,5.88
2022-07-27T06:32:26.187Z,1.88
2022-07-27T06:36:29.180Z,7.38
2022-07-27T06:40:32.321Z,1.23
2022-07-27T06:44:35.379Z,3.90
2022-07-27T06:48:40.321Z,2.03
2022-07-27T06:52:43.804Z,3.90
2022-07-27T06:56:47.218Z,2.28
2022-07-27T07:00:50.597Z,5.93
2022-07-27T07:04:55.112Z,3.40
2022-07-27T07:08:58.250Z,4.53
2022-07-27T07:13:05.801Z,1.65
2022-07-27T07:17:09.060Z,2.00
2022-07-27T07:21:13.476Z,0.77
2022-07-27T07:25:17.170Z,7.43
2022-07-27T07:29:20.276Z,2.05
2022-07-27T07:33:23.376Z,1.02
2022-07-27T07:37:33.491Z,4.70
2022-07-27T07:41:37.633Z,3.47
2022-07-27T07:45:50.026Z,1.48
2022-07-27T07:49:54.781Z,3.72
2022-07-27T07:53:59.328Z,5.03
2022-07-27T07:58:02.573Z,4.80
2022-07-27T08:02:05.747Z,2.90
2022-07-27T08:06:08.952Z,3.42
2022-07-27T08:10:15.176Z,2.30
2022-07-27T08:14:18.311Z,6.30
2022-07-27T08:18:22.167Z,2.25
2022-07-27T08:22:25.461Z,2.15
2022-07-27T08:26:29.862Z,2.67
2022-07-27T08:30:33.722Z,0.65
2022-07-27T08:34:36.978Z,0.40
2022-07-27T08:38:40.047Z,2.30
2022-07-27T08:42:44.930Z,2.10
2022-07-27T08:46:52.948Z,1.27
2022-07-27T08:50:56.644Z,1.83
2022-07-27T08:54:59.725Z,0.80
2022-07-27T08:59:04.425Z,2.92
2022-07-27T09:03:07.649Z,2.10
2022-07-27T09:07:10.747Z,0.63
2022-07-27T09:11:15.583Z,3.05
2022-07-27T09:15:20.099Z,1.00
2022-07-27T09:19:23.249Z,0.30
2022-07-27T09:23:28.239Z,0.30
2022-07-27T09:27:31.862Z,0.20
2022-07-27T09:31:42.989Z,1.00
2022-07-27T09:35:59.940Z,1.55
2022-07-27T09:40:11.812Z,2.65
2022-07-27T09:44:32.510Z,2.80
2022-07-27T09:48:38.267Z,1.33
2022-07-27T09:52:41.458Z,2.50
2022-07-27T09:56:46.206Z,2.15
2022-07-27T10:00:58.555Z,2.63
2022-07-27T10:05:03.050Z,0.95
2022-07-27T10:09:06.202Z,4.13
2022-07-27T10:13:09.419Z,1.48
2022-07-27T10:17:13.791Z,1.45
2022-07-27T10:21:18.938Z,1.85
2022-07-27T10:25:22.839Z,1.73
2022-07-27T10:29:26.560Z,1.70
2022-07-27T10:33:43.900Z,1.88
2022-07-27T10:38:08.036Z,2.58
2022-07-27T10:42:31.479Z,1.10
2022-07-27T10:46:38.624Z,1.48
2022-07-27T10:50:49.165Z,1.13
2022-07-27T10:54:59.562Z,0.70
2022-07-27T10:59:03.207Z,1.58
2022-07-27T11:03:06.791Z,0.63
2022-07-27T11:07:32.074Z,3.50
2022-07-27T11:11:35.023Z,3.40
2022-07-27T11:15:38.246Z,0.80
2022-07-27T11:19:41.363Z,1.23
2022-07-27T11:23:52.403Z,2.47
2022-07-27T11:27:56.985Z,0.68
2022-07-27T11:32:01.222Z,0.25
2022-07-27T11:36:07.380Z,0.30
2022-07-27T11:40:53.331Z,0.65
2022-07-27T11:44:39.966Z,2.20
2022-07-27T11:53:11.896Z,1.05
2022-07-27T11:57:16.968Z,0.60
2022-07-27T12:01:29.548Z,1.55
2022-07-27T12:05:32.634Z,1.63
2022-07-27T12:09:39.096Z,0.75
2022-07-27T12:13:42.731Z,1.35
2022-07-27T12:17:48.182Z,1.13
2022-07-27T12:21:54.585Z,1.35
2022-07-27T12:25:57.635Z,0.85
2022-07-27T12:30:09.438Z,2.35
2022-07-27T12:34:15.173Z,0.30
2022-07-27T12:38:18.813Z,0.73
2022-07-27T12:42:22.099Z,2.72
2022-07-27T12:46:25.364Z,4.40
2022-07-27T12:50:30.187Z,1.92
2022-07-27T12:54:33.316Z,0.40
2022-07-27T12:58:37.391Z,0.45
2022-07-27T13:02:40.695Z,0.93
2022-07-27T13:06:45.412Z,1.92
2022-07-27T13:10:50.407Z,1.20
2022-07-27T13:14:53.642Z,0.85
2022-07-27T13:18:56.912Z,2.35
2022-07-27T13:23:01.399Z,1.35
2022-07-27T13:27:04.799Z,0.40
2022-07-27T13:31:08.623Z,1.70
2022-07-27T13:35:12.770Z,1.13
2022-07-27T13:39:17.272Z,1.73
2022-07-27T13:43:20.535Z,0.45
2022-07-27T13:47:23.655Z,0.57
2022-07-27T13:51:26.676Z,1.27
2022-07-27T13:55:31.260Z,0.70
2022-07-27T13:59:34.317Z,0.85
2022-07-27T14:03:37.869Z,2.38
2022-07-27T14:07:41.724Z,2.25
2022-07-27T14:11:52.710Z,1.50
2022-07-27T14:15:56.560Z,1.42
2022-07-27T14:19:59.749Z,0.68
2022-07-27T14:24:05.771Z,1.42
2022-07-27T14:28:10.473Z,1.05
2022-07-27T14:32:13.588Z,0.82
2022-07-27T14:36:16.693Z,1.23
2022-07-27T14:40:19.849Z,2.03
2022-07-27T14:44:24.426Z,0.90
2022-07-27T14:48:48.874Z,1.52
2022-07-27T14:52:52.247Z,1.83
2022-07-27T14:56:55.425Z,2.28
2022-07-27T15:00:59.962Z,0.60
2022-07-27T15:05:03.051Z,1.15
2022-07-27T15:09:06.452Z,0.57
2022-07-27T15:13:09.707Z,1.50
2022-07-27T15:17:14.209Z,1.67
2022-07-27T15:21:17.774Z,1.27
2022-07-27T15:25:20.884Z,2.42
2022-07-27T15:29:23.992Z,1.95
2022-07-27T15:33:29.496Z,1.25
2022-07-27T15:37:32.572Z,3.00
2022-07-27T15:41:37.236Z,0.70
2022-07-27T15:45:42.341Z,1.42
2022-07-27T15:49:46.855Z,2.25
2022-07-27T15:53:50.106Z,1.02
2022-07-27T15:57:53.313Z,3.50
2022-07-27T16:01:56.517Z,1.73
2022-07-27T16:06:02.533Z,1.08
2022-07-27T16:10:06.574Z,3.60
2022-07-27T16:14:09.697Z,0.57
2022-07-27T16:18:13.040Z,1.10
2022-07-27T16:22:17.558Z,3.47
2022-07-27T16:26:21.418Z,1.25
2022-07-27T16:30:24.548Z,0.75
2022-07-27T16:34:28.721Z,1.83
2022-07-27T16:38:33.268Z,3.17
2022-07-27T16:42:38.163Z,1.58
2022-07-27T16:46:42.652Z,1.30
2022-07-27T16:50:45.820Z,3.17
2022-07-27T16:54:50.855Z,0.88
2022-07-27T16:58:54.001Z,2.63
2022-07-27T17:02:57.398Z,0.40
2022-07-27T17:07:00.574Z,2.28
2022-07-27T17:11:06.497Z,2.20
2022-07-27T17:15:10.711Z,2.00
2022-07-27T17:19:14.702Z,8.07
2022-07-27T17:23:18.006Z,1.05
2022-07-27T17:27:22.860Z,1.60
2022-07-27T17:31:26.530Z,1.33
2022-07-27T17:35:29.716Z,2.47
2022-07-27T17:39:32.792Z,2.67
2022-07-27T17:43:38.831Z,3.22
2022-07-27T17:47:42.008Z,3.20
2022-07-27T17:51:45.149Z,3.15
2022-07-27T17:55:48.182Z,2.53
2022-07-27T17:59:52.580Z,1.55
2022-07-27T18:03:55.764Z,2.22
2022-07-27T18:07:59.101Z,6.07
2022-07-27T18:12:02.137Z,6.63
2022-07-27T18:16:06.749Z,0.40
2022-07-27T18:20:12.293Z,6.00
2022-07-27T18:24:15.725Z,0.68
2022-07-27T18:28:19.337Z,0.50
2022-07-27T18:32:24.441Z,0.57
2022-07-27T18:36:27.909Z,5.10
2022-07-27T18:40:31.069Z,1.92
2022-07-27T18:44:38.848Z,2.50
2022-07-27T18:48:44.484Z,0.85
2022-07-27T18:52:47.611Z,1.45
2022-07-27T18:56:51.047Z,1.48
2022-07-27T19:00:54.458Z,2.47
2022-07-27T19:04:59.679Z,2.17
2022-07-27T19:09:02.899Z,3.95
2022-07-27T19:13:06.082Z,1.27
2022-07-27T19:17:14.606Z,7.63
2022-07-27T19:21:19.575Z,0.90
2022-07-27T19:25:23.772Z,3.90
2022-07-27T19:29:26.864Z,2.40
2022-07-27T19:33:29.968Z,2.08
2022-07-27T19:37:34.844Z,3.30
2022-07-27T19:41:38.162Z,3.10
2022-07-27T19:45:42.310Z,3.03
2022-07-27T19:49:46.279Z,2.30
2022-07-27T19:53:50.862Z,1.90
2022-07-27T19:57:54.336Z,4.90
2022-07-27T20:01:58.087Z,2.58
2022-07-27T20:06:02.315Z,0.70
2022-07-27T20:10:07.623Z,3.80
2022-07-27T20:14:11.456Z,1.80
2022-07-27T20:18:14.801Z,1.65
2022-07-27T20:22:17.805Z,1.33
2022-07-27T20:26:22.379Z,3.55
2022-07-27T20:30:25.967Z,2.20
2022-07-27T20:34:29.280Z,2.40
2022-07-27T20:38:32.494Z,0.90
2022-07-27T20:42:36.963Z,5.10
2022-07-27T20:46:43.558Z,1.95
2022-07-27T20:50:46.780Z,1.30
2022-07-27T20:54:50.581Z,1.13
2022-07-27T20:58:54.976Z,1.98
2022-07-27T21:02:58.133Z,0.85
2022-07-27T21:07:01.234Z,1.85
2022-07-27T21:11:06.212Z,1.13
2022-07-27T21:15:13.493Z,4.20
2022-07-27T21:19:19.463Z,5.15
2022-07-27T21:23:39.879Z,2.17
2022-07-27T21:27:42.950Z,4.75
2022-07-27T21:31:50.799Z,2.13
2022-07-27T21:35:54.209Z,4.43
2022-07-27T21:39:57.518Z,1.60
2022-07-27T21:44:00.794Z,2.83
2022-07-27T21:48:05.805Z,2.67
2022-07-27T21:52:08.950Z,2.78
2022-07-27T21:56:13.661Z,1.90
2022-07-27T22:00:17.752Z,2.40
2022-07-27T22:04:22.244Z,5.32
2022-07-27T22:08:25.292Z,0.90
2022-07-27T22:12:28.641Z,1.63
2022-07-27T22:16:31.760Z,4.53
2022-07-27T22:20:36.543Z,2.15
2022-07-27T22:24:39.679Z,2.20
2022-07-27T22:28:42.758Z,2.85
2022-07-27T22:32:45.787Z,3.70
2022-07-27T22:36:50.182Z,0.82
2022-07-27T22:40:54.516Z,1.50
2022-07-27T22:44:57.560Z,1.60
2022-07-27T22:49:00.634Z,2.95
2022-07-27T22:53:05.092Z,1.85
2022-07-27T22:57:08.815Z,9.02
2022-07-27T23:01:28.418Z,1.50
2022-07-27T23:05:35.110Z,2.42
2022-07-27T23:09:39.668Z,3.97
2022-07-27T23:13:42.793Z,3.40
2022-07-27T23:17:46.036Z,2.15
2022-07-27T23:21:49.284Z,1.92
2022-07-27T23:25:54.394Z,3.65
2022-07-27T23:29:58.296Z,3.20
2022-07-27T23:34:01.374Z,3.78
2022-07-27T23:38:04.682Z,3.00
2022-07-27T23:42:09.473Z,2.67
2022-07-27T23:46:12.568Z,2.83
2022-07-27T23:50:15.783Z,3.67
2022-07-27T23:54:18.886Z,2.33
2022-07-27T23:58:23.363Z,3.30
